sensor_id;sensor_type;location;lat;lon;timestamp;P1;durP1;ratioP1;P2;durP2;ratioP2
18280;SDS011;9266;51.132;17.062;2023-11-22T00:02:25;65.30;;;36.87;;
18280;SDS011;9266;51.132;17.062;2023-11-22T00:04:54;61.73;;;36.63;;
18280;SDS011;9266;51.132;17.062;2023-11-22T00:07:21;66.97;;;37.47;;
18280;SDS011;9266;51.132;17.062;2023-11-22T00:09:49;55.83;;;35.30;;
18280;SDS011;9266;51.132;17.062;2023-11-22T00:12:17;63.17;;;35.93;;
18280;SDS011;9266;51.132;17.062;2023-11-22T00:14:45;61.30;;;37.13;;
18280;SDS011;9266;51.132;17.062;2023-11-22T00:17:12;61.47;;;36.63;;
18280;SDS011;9266;51.132;17.062;2023-11-22T00:19:39;66.17;;;36.13;;
18280;SDS011;9266;51.132;17.062;2023-11-22T00:22:06;63.67;;;38.13;;
18280;SDS011;9266;51.132;17.062;2023-11-22T00:24:38;64.10;;;36.80;;
18280;SDS011;9266;51.132;17.062;2023-11-22T00:27:06;66.40;;;37.37;;
18280;SDS011;9266;51.132;17.062;2023-11-22T00:29:33;61.00;;;35.47;;
18280;SDS011;9266;51.132;17.062;2023-11-22T00:32:00;64.47;;;36.17;;
18280;SDS011;9266;51.132;17.062;2023-11-22T00:34:28;64.17;;;37.27;;
18280;SDS011;9266;51.132;17.062;2023-11-22T00:36:55;63.10;;;35.57;;
18280;SDS011;9266;51.132;17.062;2023-11-22T00:39:22;63.53;;;36.73;;
18280;SDS011;9266;51.132;17.062;2023-11-22T00:41:49;58.57;;;35.13;;
18280;SDS011;9266;51.132;17.062;2023-11-22T00:44:18;64.17;;;37.57;;
18280;SDS011;9266;51.132;17.062;2023-11-22T00:46:45;65.73;;;38.17;;
18280;SDS011;9266;51.132;17.062;2023-11-22T00:49:11;70.03;;;39.03;;
18280;SDS011;9266;51.132;17.062;2023-11-22T00:51:39;66.37;;;38.90;;
18280;SDS011;9266;51.132;17.062;2023-11-22T00:54:06;62.30;;;38.37;;
18280;SDS011;9266;51.132;17.062;2023-11-22T00:56:33;59.57;;;35.30;;
18280;SDS011;9266;51.132;17.062;2023-11-22T00:59:20;62.00;;;35.47;;
18280;SDS011;9266;51.132;17.062;2023-11-22T01:01:46;65.00;;;36.80;;
18280;SDS011;9266;51.132;17.062;2023-11-22T01:04:13;64.20;;;36.37;;
18280;SDS011;9266;51.132;17.062;2023-11-22T01:06:41;63.40;;;37.97;;
18280;SDS011;9266;51.132;17.062;2023-11-22T01:09:08;64.77;;;36.80;;
18280;SDS011;9266;51.132;17.062;2023-11-22T01:11:38;58.97;;;37.17;;
18280;SDS011;9266;51.132;17.062;2023-11-22T01:14:05;63.23;;;37.13;;
18280;SDS011;9266;51.132;17.062;2023-11-22T01:16:34;62.53;;;36.47;;
18280;SDS011;9266;51.132;17.062;2023-11-22T01:19:02;64.60;;;37.97;;
18280;SDS011;9266;51.132;17.062;2023-11-22T01:21:28;56.07;;;32.73;;
18280;SDS011;9266;51.132;17.062;2023-11-22T01:23:56;55.77;;;33.10;;
18280;SDS011;9266;51.132;17.062;2023-11-22T01:26:25;56.03;;;34.97;;
18280;SDS011;9266;51.132;17.062;2023-11-22T01:28:52;55.23;;;33.43;;
18280;SDS011;9266;51.132;17.062;2023-11-22T01:31:19;56.77;;;32.47;;
18280;SDS011;9266;51.132;17.062;2023-11-22T01:33:49;58.07;;;34.20;;
18280;SDS011;9266;51.132;17.062;2023-11-22T01:36:16;53.77;;;31.73;;
18280;SDS011;9266;51.132;17.062;2023-11-22T01:38:43;56.50;;;32.83;;
18280;SDS011;9266;51.132;17.062;2023-11-22T01:41:11;55.67;;;31.27;;
18280;SDS011;9266;51.132;17.062;2023-11-22T01:43:38;51.53;;;31.67;;
18280;SDS011;9266;51.132;17.062;2023-11-22T01:46:06;53.20;;;32.80;;
18280;SDS011;9266;51.132;17.062;2023-11-22T01:48:34;52.97;;;31.70;;
18280;SDS011;9266;51.132;17.062;2023-11-22T01:51:03;49.33;;;30.70;;
18280;SDS011;9266;51.132;17.062;2023-11-22T01:53:33;46.60;;;30.07;;
18280;SDS011;9266;51.132;17.062;2023-11-22T01:56:01;50.03;;;29.93;;
18280;SDS011;9266;51.132;17.062;2023-11-22T01:58:28;48.97;;;30.17;;
18280;SDS011;9266;51.132;17.062;2023-11-22T02:00:55;48.80;;;31.60;;
18280;SDS011;9266;51.132;17.062;2023-11-22T02:03:24;48.87;;;30.10;;
18280;SDS011;9266;51.132;17.062;2023-11-22T02:05:51;48.73;;;27.13;;
18280;SDS011;9266;51.132;17.062;2023-11-22T02:08:20;45.67;;;30.30;;
18280;SDS011;9266;51.132;17.062;2023-11-22T02:10:56;42.97;;;27.13;;
18280;SDS011;9266;51.132;17.062;2023-11-22T02:13:24;39.23;;;25.00;;
18280;SDS011;9266;51.132;17.062;2023-11-22T02:15:51;41.07;;;26.10;;
18280;SDS011;9266;51.132;17.062;2023-11-22T02:18:21;41.13;;;25.43;;
18280;SDS011;9266;51.132;17.062;2023-11-22T02:20:48;36.77;;;24.50;;
18280;SDS011;9266;51.132;17.062;2023-11-22T02:23:17;36.40;;;24.07;;
18280;SDS011;9266;51.132;17.062;2023-11-22T02:25:44;37.30;;;24.83;;
18280;SDS011;9266;51.132;17.062;2023-11-22T02:28:11;40.60;;;25.23;;
18280;SDS011;9266;51.132;17.062;2023-11-22T02:30:39;36.83;;;23.23;;
18280;SDS011;9266;51.132;17.062;2023-11-22T02:33:06;43.57;;;23.87;;
18280;SDS011;9266;51.132;17.062;2023-11-22T02:35:34;39.53;;;24.63;;
18280;SDS011;9266;51.132;17.062;2023-11-22T02:38:01;35.00;;;23.17;;
18280;SDS011;9266;51.132;17.062;2023-11-22T02:40:29;40.23;;;24.67;;
18280;SDS011;9266;51.132;17.062;2023-11-22T02:42:56;36.80;;;24.40;;
18280;SDS011;9266;51.132;17.062;2023-11-22T02:45:25;40.33;;;25.73;;
18280;SDS011;9266;51.132;17.062;2023-11-22T02:47:53;37.90;;;23.27;;
18280;SDS011;9266;51.132;17.062;2023-11-22T02:50:20;36.67;;;24.33;;
18280;SDS011;9266;51.132;17.062;2023-11-22T02:52:47;39.43;;;24.70;;
18280;SDS011;9266;51.132;17.062;2023-11-22T02:55:14;34.80;;;23.13;;
18280;SDS011;9266;51.132;17.062;2023-11-22T02:57:42;35.93;;;22.70;;
18280;SDS011;9266;51.132;17.062;2023-11-22T03:00:10;36.63;;;24.70;;
18280;SDS011;9266;51.132;17.062;2023-11-22T03:02:39;36.17;;;23.57;;
18280;SDS011;9266;51.132;17.062;2023-11-22T03:05:07;34.90;;;23.77;;
18280;SDS011;9266;51.132;17.062;2023-11-22T03:07:34;36.73;;;21.93;;
18280;SDS011;9266;51.132;17.062;2023-11-22T03:10:02;39.30;;;23.53;;
18280;SDS011;9266;51.132;17.062;2023-11-22T03:12:29;38.27;;;24.43;;
18280;SDS011;9266;51.132;17.062;2023-11-22T03:14:57;40.50;;;24.40;;
18280;SDS011;9266;51.132;17.062;2023-11-22T03:17:27;41.13;;;23.60;;
18280;SDS011;9266;51.132;17.062;2023-11-22T03:19:54;39.27;;;24.50;;
18280;SDS011;9266;51.132;17.062;2023-11-22T03:22:22;38.83;;;25.60;;
18280;SDS011;9266;51.132;17.062;2023-11-22T03:24:49;36.90;;;23.30;;
18280;SDS011;9266;51.132;17.062;2023-11-22T03:27:16;39.30;;;25.17;;
18280;SDS011;9266;51.132;17.062;2023-11-22T03:29:43;39.43;;;26.07;;
18280;SDS011;9266;51.132;17.062;2023-11-22T03:32:12;44.73;;;26.23;;
18280;SDS011;9266;51.132;17.062;2023-11-22T03:34:39;38.40;;;25.63;;
18280;SDS011;9266;51.132;17.062;2023-11-22T03:37:06;43.60;;;25.67;;
18280;SDS011;9266;51.132;17.062;2023-11-22T03:39:33;46.23;;;28.77;;
18280;SDS011;9266;51.132;17.062;2023-11-22T03:42:00;38.47;;;25.03;;
18280;SDS011;9266;51.132;17.062;2023-11-22T03:44:27;39.93;;;23.73;;
18280;SDS011;9266;51.132;17.062;2023-11-22T03:46:55;37.27;;;23.90;;
18280;SDS011;9266;51.132;17.062;2023-11-22T03:49:23;35.90;;;24.00;;
18280;SDS011;9266;51.132;17.062;2023-11-22T03:51:50;37.23;;;23.47;;
18280;SDS011;9266;51.132;17.062;2023-11-22T03:54:17;33.60;;;22.07;;
18280;SDS011;9266;51.132;17.062;2023-11-22T03:56:44;38.10;;;21.80;;
18280;SDS011;9266;51.132;17.062;2023-11-22T03:59:11;37.30;;;23.03;;
18280;SDS011;9266;51.132;17.062;2023-11-22T04:01:38;37.77;;;22.90;;
18280;SDS011;9266;51.132;17.062;2023-11-22T04:04:05;32.00;;;22.23;;
18280;SDS011;9266;51.132;17.062;2023-11-22T04:06:35;37.50;;;23.47;;
18280;SDS011;9266;51.132;17.062;2023-11-22T04:09:02;33.20;;;21.30;;
18280;SDS011;9266;51.132;17.062;2023-11-22T04:11:29;37.37;;;23.83;;
18280;SDS011;9266;51.132;17.062;2023-11-22T04:13:56;38.07;;;22.47;;
18280;SDS011;9266;51.132;17.062;2023-11-22T04:16:23;31.00;;;21.87;;
18280;SDS011;9266;51.132;17.062;2023-11-22T04:18:50;29.23;;;19.80;;
18280;SDS011;9266;51.132;17.062;2023-11-22T04:21:17;27.87;;;19.03;;
18280;SDS011;9266;51.132;17.062;2023-11-22T04:23:45;26.57;;;18.50;;
18280;SDS011;9266;51.132;17.062;2023-11-22T04:26:13;26.63;;;17.80;;
18280;SDS011;9266;51.132;17.062;2023-11-22T04:28:41;26.43;;;17.20;;
18280;SDS011;9266;51.132;17.062;2023-11-22T04:31:08;28.07;;;17.33;;
18280;SDS011;9266;51.132;17.062;2023-11-22T04:33:35;24.60;;;16.37;;
18280;SDS011;9266;51.132;17.062;2023-11-22T04:36:01;24.80;;;15.93;;
18280;SDS011;9266;51.132;17.062;2023-11-22T04:38:28;24.00;;;15.57;;
18280;SDS011;9266;51.132;17.062;2023-11-22T04:40:56;23.03;;;14.00;;
18280;SDS011;9266;51.132;17.062;2023-11-22T04:43:23;22.53;;;14.60;;
18280;SDS011;9266;51.132;17.062;2023-11-22T04:45:51;22.70;;;13.93;;
18280;SDS011;9266;51.132;17.062;2023-11-22T04:48:18;19.97;;;13.80;;
18280;SDS011;9266;51.132;17.062;2023-11-22T04:50:44;20.17;;;13.97;;
18280;SDS011;9266;51.132;17.062;2023-11-22T04:53:11;22.23;;;13.97;;
18280;SDS011;9266;51.132;17.062;2023-11-22T04:55:38;22.03;;;13.90;;
18280;SDS011;9266;51.132;17.062;2023-11-22T04:58:06;23.30;;;14.63;;
18280;SDS011;9266;51.132;17.062;2023-11-22T05:00:33;23.27;;;15.30;;
18280;SDS011;9266;51.132;17.062;2023-11-22T05:03:00;24.30;;;15.20;;
18280;SDS011;9266;51.132;17.062;2023-11-22T05:05:27;22.60;;;15.80;;
18280;SDS011;9266;51.132;17.062;2023-11-22T05:07:54;21.60;;;14.63;;
18280;SDS011;9266;51.132;17.062;2023-11-22T05:10:21;23.00;;;15.87;;
18280;SDS011;9266;51.132;17.062;2023-11-22T05:12:48;24.63;;;16.70;;
18280;SDS011;9266;51.132;17.062;2023-11-22T05:15:16;23.87;;;15.37;;
18280;SDS011;9266;51.132;17.062;2023-11-22T05:17:43;23.20;;;15.53;;
18280;SDS011;9266;51.132;17.062;2023-11-22T05:20:10;26.50;;;15.57;;
18280;SDS011;9266;51.132;17.062;2023-11-22T05:22:37;27.57;;;16.93;;
18280;SDS011;9266;51.132;17.062;2023-11-22T05:25:04;24.93;;;16.20;;
18280;SDS011;9266;51.132;17.062;2023-11-22T05:27:32;26.80;;;16.40;;
18280;SDS011;9266;51.132;17.062;2023-11-22T05:29:59;26.17;;;16.07;;
18280;SDS011;9266;51.132;17.062;2023-11-22T05:32:28;23.33;;;16.10;;
18280;SDS011;9266;51.132;17.062;2023-11-22T05:34:56;24.10;;;16.33;;
18280;SDS011;9266;51.132;17.062;2023-11-22T05:37:23;27.80;;;17.83;;
18280;SDS011;9266;51.132;17.062;2023-11-22T05:39:50;28.03;;;17.17;;
18280;SDS011;9266;51.132;17.062;2023-11-22T05:42:17;28.67;;;17.50;;
18280;SDS011;9266;51.132;17.062;2023-11-22T05:44:44;23.87;;;16.10;;
18280;SDS011;9266;51.132;17.062;2023-11-22T05:47:11;24.03;;;16.10;;
18280;SDS011;9266;51.132;17.062;2023-11-22T05:49:39;27.17;;;16.57;;
18280;SDS011;9266;51.132;17.062;2023-11-22T05:52:06;24.20;;;15.63;;
18280;SDS011;9266;51.132;17.062;2023-11-22T05:54:33;28.53;;;17.63;;
18280;SDS011;9266;51.132;17.062;2023-11-22T05:57:00;26.13;;;17.23;;
18280;SDS011;9266;51.132;17.062;2023-11-22T05:59:27;21.07;;;15.43;;
18280;SDS011;9266;51.132;17.062;2023-11-22T06:01:54;23.37;;;15.30;;
18280;SDS011;9266;51.132;17.062;2023-11-22T06:04:21;26.77;;;16.70;;
18280;SDS011;9266;51.132;17.062;2023-11-22T06:06:49;28.10;;;16.53;;
18280;SDS011;9266;51.132;17.062;2023-11-22T06:09:16;22.17;;;14.80;;
18280;SDS011;9266;51.132;17.062;2023-11-22T06:11:43;24.17;;;15.80;;
18280;SDS011;9266;51.132;17.062;2023-11-22T06:14:10;23.50;;;14.03;;
18280;SDS011;9266;51.132;17.062;2023-11-22T06:16:37;24.40;;;14.60;;
18280;SDS011;9266;51.132;17.062;2023-11-22T06:19:04;24.73;;;15.33;;
18280;SDS011;9266;51.132;17.062;2023-11-22T06:21:32;26.20;;;14.10;;
18280;SDS011;9266;51.132;17.062;2023-11-22T06:24:01;23.47;;;13.93;;
18280;SDS011;9266;51.132;17.062;2023-11-22T06:26:31;19.37;;;12.60;;
18280;SDS011;9266;51.132;17.062;2023-11-22T06:28:58;23.77;;;13.53;;
18280;SDS011;9266;51.132;17.062;2023-11-22T06:31:25;25.03;;;13.10;;
18280;SDS011;9266;51.132;17.062;2023-11-22T06:33:51;22.37;;;12.83;;
18280;SDS011;9266;51.132;17.062;2023-11-22T06:36:18;22.77;;;13.00;;
18280;SDS011;9266;51.132;17.062;2023-11-22T06:38:45;18.67;;;12.07;;
18280;SDS011;9266;51.132;17.062;2023-11-22T06:41:13;23.03;;;15.93;;
18280;SDS011;9266;51.132;17.062;2023-11-22T06:43:42;24.37;;;14.00;;
18280;SDS011;9266;51.132;17.062;2023-11-22T06:46:09;34.60;;;22.33;;
18280;SDS011;9266;51.132;17.062;2023-11-22T06:48:36;18.70;;;12.27;;
18280;SDS011;9266;51.132;17.062;2023-11-22T06:51:03;21.30;;;14.90;;
18280;SDS011;9266;51.132;17.062;2023-11-22T06:53:32;20.27;;;13.43;;
18280;SDS011;9266;51.132;17.062;2023-11-22T06:55:58;36.10;;;24.67;;
18280;SDS011;9266;51.132;17.062;2023-11-22T06:58:27;24.27;;;18.83;;
18280;SDS011;9266;51.132;17.062;2023-11-22T07:00:54;19.33;;;12.97;;
18280;SDS011;9266;51.132;17.062;2023-11-22T07:03:22;22.30;;;17.17;;
18280;SDS011;9266;51.132;17.062;2023-11-22T07:05:48;20.77;;;13.73;;
18280;SDS011;9266;51.132;17.062;2023-11-22T07:08:15;18.00;;;11.87;;
18280;SDS011;9266;51.132;17.062;2023-11-22T07:10:42;19.87;;;14.90;;
18280;SDS011;9266;51.132;17.062;2023-11-22T07:13:10;21.77;;;13.73;;
18280;SDS011;9266;51.132;17.062;2023-11-22T07:15:39;36.57;;;24.77;;
18280;SDS011;9266;51.132;17.062;2023-11-22T07:18:06;20.90;;;13.07;;
18280;SDS011;9266;51.132;17.062;2023-11-22T07:20:35;23.63;;;15.73;;
18280;SDS011;9266;51.132;17.062;2023-11-22T07:23:02;30.40;;;22.83;;
18280;SDS011;9266;51.132;17.062;2023-11-22T07:25:29;20.17;;;13.40;;
18280;SDS011;9266;51.132;17.062;2023-11-22T07:27:56;18.33;;;12.90;;
18280;SDS011;9266;51.132;17.062;2023-11-22T07:30:25;16.20;;;10.90;;
18280;SDS011;9266;51.132;17.062;2023-11-22T07:32:56;20.53;;;10.23;;
18280;SDS011;9266;51.132;17.062;2023-11-22T07:35:25;15.43;;;10.60;;
18280;SDS011;9266;51.132;17.062;2023-11-22T07:37:53;16.43;;;10.63;;
18280;SDS011;9266;51.132;17.062;2023-11-22T07:40:20;14.33;;;10.10;;
18280;SDS011;9266;51.132;17.062;2023-11-22T07:42:47;16.63;;;10.07;;
18280;SDS011;9266;51.132;17.062;2023-11-22T07:45:14;17.53;;;9.77;;
18280;SDS011;9266;51.132;17.062;2023-11-22T07:47:42;14.67;;;10.67;;
18280;SDS011;9266;51.132;17.062;2023-11-22T07:50:10;13.83;;;9.63;;
18280;SDS011;9266;51.132;17.062;2023-11-22T07:52:37;35.53;;;23.87;;
18280;SDS011;9266;51.132;17.062;2023-11-22T07:55:06;16.43;;;10.50;;
18280;SDS011;9266;51.132;17.062;2023-11-22T07:57:35;34.23;;;23.60;;
18280;SDS011;9266;51.132;17.062;2023-11-22T08:00:02;17.00;;;11.97;;
18280;SDS011;9266;51.132;17.062;2023-11-22T08:02:32;14.50;;;9.83;;
18280;SDS011;9266;51.132;17.062;2023-11-22T08:05:00;15.33;;;11.97;;
18280;SDS011;9266;51.132;17.062;2023-11-22T08:07:30;20.17;;;13.70;;
18280;SDS011;9266;51.132;17.062;2023-11-22T08:09:58;18.43;;;11.77;;
18280;SDS011;9266;51.132;17.062;2023-11-22T08:12:34;20.53;;;12.97;;
18280;SDS011;9266;51.132;17.062;2023-11-22T08:15:01;26.87;;;18.97;;
18280;SDS011;9266;51.132;17.062;2023-11-22T08:17:28;37.67;;;22.07;;
18280;SDS011;9266;51.132;17.062;2023-11-22T08:19:57;22.47;;;14.87;;
18280;SDS011;9266;51.132;17.062;2023-11-22T08:22:25;21.47;;;15.07;;
18280;SDS011;9266;51.132;17.062;2023-11-22T08:24:55;23.17;;;15.93;;
18280;SDS011;9266;51.132;17.062;2023-11-22T08:27:22;24.10;;;16.00;;
18280;SDS011;9266;51.132;17.062;2023-11-22T08:29:49;26.63;;;15.97;;
18280;SDS011;9266;51.132;17.062;2023-11-22T08:32:16;26.53;;;16.90;;
18280;SDS011;9266;51.132;17.062;2023-11-22T08:34:47;28.70;;;17.33;;
18280;SDS011;9266;51.132;17.062;2023-11-22T08:37:14;36.60;;;23.43;;
18280;SDS011;9266;51.132;17.062;2023-11-22T08:39:41;56.50;;;31.53;;
18280;SDS011;9266;51.132;17.062;2023-11-22T08:42:09;59.87;;;34.33;;
18280;SDS011;9266;51.132;17.062;2023-11-22T08:44:36;81.47;;;43.60;;
18280;SDS011;9266;51.132;17.062;2023-11-22T08:47:04;92.73;;;42.70;;
18280;SDS011;9266;51.132;17.062;2023-11-22T08:49:30;79.00;;;41.80;;
18280;SDS011;9266;51.132;17.062;2023-11-22T08:51:57;85.30;;;44.23;;
18280;SDS011;9266;51.132;17.062;2023-11-22T08:54:26;63.43;;;35.60;;
18280;SDS011;9266;51.132;17.062;2023-11-22T08:56:54;35.20;;;21.93;;
18280;SDS011;9266;51.132;17.062;2023-11-22T08:59:23;40.37;;;22.50;;
18280;SDS011;9266;51.132;17.062;2023-11-22T09:01:50;25.87;;;17.80;;
18280;SDS011;9266;51.132;17.062;2023-11-22T09:04:17;25.43;;;18.23;;
18280;SDS011;9266;51.132;17.062;2023-11-22T09:06:45;27.77;;;16.90;;
18280;SDS011;9266;51.132;17.062;2023-11-22T09:09:12;27.63;;;16.70;;
18280;SDS011;9266;51.132;17.062;2023-11-22T09:11:41;23.17;;;15.63;;
18280;SDS011;9266;51.132;17.062;2023-11-22T09:14:08;24.70;;;14.90;;
18280;SDS011;9266;51.132;17.062;2023-11-22T09:16:37;25.53;;;15.93;;
18280;SDS011;9266;51.132;17.062;2023-11-22T09:19:04;26.87;;;19.27;;
18280;SDS011;9266;51.132;17.062;2023-11-22T09:21:31;24.90;;;15.73;;
18280;SDS011;9266;51.132;17.062;2023-11-22T09:23:58;22.43;;;14.70;;
18280;SDS011;9266;51.132;17.062;2023-11-22T09:26:25;23.87;;;17.03;;
18280;SDS011;9266;51.132;17.062;2023-11-22T09:28:52;21.37;;;14.43;;
18280;SDS011;9266;51.132;17.062;2023-11-22T09:31:19;24.77;;;17.20;;
18280;SDS011;9266;51.132;17.062;2023-11-22T09:33:47;23.50;;;15.47;;
18280;SDS011;9266;51.132;17.062;2023-11-22T09:36:15;22.00;;;15.13;;
18280;SDS011;9266;51.132;17.062;2023-11-22T09:38:43;20.07;;;13.97;;
18280;SDS011;9266;51.132;17.062;2023-11-22T09:41:10;20.77;;;13.93;;
18280;SDS011;9266;51.132;17.062;2023-11-22T09:43:37;18.73;;;14.23;;
18280;SDS011;9266;51.132;17.062;2023-11-22T09:46:05;22.60;;;14.07;;
18280;SDS011;9266;51.132;17.062;2023-11-22T09:48:36;22.83;;;15.20;;
18280;SDS011;9266;51.132;17.062;2023-11-22T09:51:12;25.63;;;15.17;;
18280;SDS011;9266;51.132;17.062;2023-11-22T09:53:51;21.47;;;14.97;;
18280;SDS011;9266;51.132;17.062;2023-11-22T09:56:19;23.50;;;15.23;;
18280;SDS011;9266;51.132;17.062;2023-11-22T09:58:47;21.57;;;14.80;;
18280;SDS011;9266;51.132;17.062;2023-11-22T10:01:19;21.13;;;14.37;;
18280;SDS011;9266;51.132;17.062;2023-11-22T10:03:48;20.07;;;13.40;;
18280;SDS011;9266;51.132;17.062;2023-11-22T10:06:17;17.50;;;13.70;;
18280;SDS011;9266;51.132;17.062;2023-11-22T10:08:44;20.40;;;14.37;;
18280;SDS011;9266;51.132;17.062;2023-11-22T10:11:12;22.33;;;13.83;;
18280;SDS011;9266;51.132;17.062;2023-11-22T10:13:42;20.33;;;13.83;;
18280;SDS011;9266;51.132;17.062;2023-11-22T10:16:11;25.17;;;18.97;;
18280;SDS011;9266;51.132;17.062;2023-11-22T10:18:41;23.33;;;15.93;;
18280;SDS011;9266;51.132;17.062;2023-11-22T10:21:20;21.73;;;14.07;;
18280;SDS011;9266;51.132;17.062;2023-11-22T10:23:49;22.60;;;15.47;;
18280;SDS011;9266;51.132;17.062;2023-11-22T10:26:17;22.17;;;15.90;;
18280;SDS011;9266;51.132;17.062;2023-11-22T10:28:44;23.60;;;14.93;;
18280;SDS011;9266;51.132;17.062;2023-11-22T10:31:11;21.57;;;14.10;;
18280;SDS011;9266;51.132;17.062;2023-11-22T10:33:42;19.80;;;13.97;;
18280;SDS011;9266;51.132;17.062;2023-11-22T10:36:09;20.30;;;13.47;;
18280;SDS011;9266;51.132;17.062;2023-11-22T10:38:38;21.57;;;14.37;;
18280;SDS011;9266;51.132;17.062;2023-11-22T10:41:05;22.13;;;14.17;;
18280;SDS011;9266;51.132;17.062;2023-11-22T10:43:35;21.30;;;15.43;;
18280;SDS011;9266;51.132;17.062;2023-11-22T10:46:02;21.30;;;13.93;;
18280;SDS011;9266;51.132;17.062;2023-11-22T10:48:31;21.93;;;14.77;;
18280;SDS011;9266;51.132;17.062;2023-11-22T10:51:00;20.50;;;13.70;;
18280;SDS011;9266;51.132;17.062;2023-11-22T10:53:31;22.27;;;14.37;;
18280;SDS011;9266;51.132;17.062;2023-11-22T10:56:02;21.03;;;14.13;;
18280;SDS011;9266;51.132;17.062;2023-11-22T10:58:36;18.63;;;12.73;;
18280;SDS011;9266;51.132;17.062;2023-11-22T11:01:08;22.47;;;13.67;;
18280;SDS011;9266;51.132;17.062;2023-11-22T11:03:37;17.57;;;11.67;;
18280;SDS011;9266;51.132;17.062;2023-11-22T11:06:07;19.67;;;14.03;;
18280;SDS011;9266;51.132;17.062;2023-11-22T11:08:39;18.97;;;12.63;;
18280;SDS011;9266;51.132;17.062;2023-11-22T11:11:11;17.97;;;13.57;;
18280;SDS011;9266;51.132;17.062;2023-11-22T11:13:40;16.93;;;13.13;;
18280;SDS011;9266;51.132;17.062;2023-11-22T11:16:08;22.57;;;14.13;;
18280;SDS011;9266;51.132;17.062;2023-11-22T11:18:35;19.33;;;13.97;;
18280;SDS011;9266;51.132;17.062;2023-11-22T11:21:07;22.57;;;15.33;;
18280;SDS011;9266;51.132;17.062;2023-11-22T11:23:38;22.50;;;15.10;;
18280;SDS011;9266;51.132;17.062;2023-11-22T11:26:09;23.70;;;16.00;;
18280;SDS011;9266;51.132;17.062;2023-11-22T11:28:43;22.63;;;15.93;;
18280;SDS011;9266;51.132;17.062;2023-11-22T11:31:11;23.37;;;15.13;;
18280;SDS011;9266;51.132;17.062;2023-11-22T11:33:52;22.33;;;15.70;;
18280;SDS011;9266;51.132;17.062;2023-11-22T11:36:21;21.17;;;15.67;;
18280;SDS011;9266;51.132;17.062;2023-11-22T11:38:50;17.77;;;13.53;;
18280;SDS011;9266;51.132;17.062;2023-11-22T11:41:23;21.80;;;15.67;;
18280;SDS011;9266;51.132;17.062;2023-11-22T11:43:52;18.23;;;12.60;;
18280;SDS011;9266;51.132;17.062;2023-11-22T11:46:20;30.20;;;20.03;;
18280;SDS011;9266;51.132;17.062;2023-11-22T11:48:48;19.03;;;13.57;;
18280;SDS011;9266;51.132;17.062;2023-11-22T11:51:17;18.93;;;13.10;;
18280;SDS011;9266;51.132;17.062;2023-11-22T11:53:44;18.97;;;14.07;;
18280;SDS011;9266;51.132;17.062;2023-11-22T11:56:12;24.73;;;18.73;;
18280;SDS011;9266;51.132;17.062;2023-11-22T11:58:41;28.00;;;17.67;;
18280;SDS011;9266;51.132;17.062;2023-11-22T12:01:09;39.90;;;21.37;;
18280;SDS011;9266;51.132;17.062;2023-11-22T12:03:37;21.07;;;15.30;;
18280;SDS011;9266;51.132;17.062;2023-11-22T12:06:04;16.20;;;12.60;;
18280;SDS011;9266;51.132;17.062;2023-11-22T12:08:32;16.93;;;12.37;;
18280;SDS011;9266;51.132;17.062;2023-11-22T12:11:01;14.90;;;12.00;;
18280;SDS011;9266;51.132;17.062;2023-11-22T12:13:29;16.10;;;12.67;;
18280;SDS011;9266;51.132;17.062;2023-11-22T12:15:57;16.47;;;11.80;;
18280;SDS011;9266;51.132;17.062;2023-11-22T12:18:25;14.90;;;11.90;;
18280;SDS011;9266;51.132;17.062;2023-11-22T12:20:55;16.77;;;12.73;;
18280;SDS011;9266;51.132;17.062;2023-11-22T12:23:23;17.40;;;11.90;;
18280;SDS011;9266;51.132;17.062;2023-11-22T12:25:56;17.60;;;12.20;;
18280;SDS011;9266;51.132;17.062;2023-11-22T12:28:23;16.87;;;12.30;;
18280;SDS011;9266;51.132;17.062;2023-11-22T12:30:52;17.93;;;12.87;;
18280;SDS011;9266;51.132;17.062;2023-11-22T12:33:21;23.20;;;13.70;;
18280;SDS011;9266;51.132;17.062;2023-11-22T12:35:48;16.67;;;11.13;;
18280;SDS011;9266;51.132;17.062;2023-11-22T12:38:15;19.07;;;12.43;;
18280;SDS011;9266;51.132;17.062;2023-11-22T12:40:46;26.03;;;14.67;;
18280;SDS011;9266;51.132;17.062;2023-11-22T12:43:13;16.30;;;11.93;;
18280;SDS011;9266;51.132;17.062;2023-11-22T12:45:40;17.33;;;13.23;;
18280;SDS011;9266;51.132;17.062;2023-11-22T12:48:21;16.13;;;13.20;;
18280;SDS011;9266;51.132;17.062;2023-11-22T12:50:49;15.60;;;11.10;;
18280;SDS011;9266;51.132;17.062;2023-11-22T12:53:17;16.03;;;12.20;;
18280;SDS011;9266;51.132;17.062;2023-11-22T12:55:46;18.70;;;15.20;;
18280;SDS011;9266;51.132;17.062;2023-11-22T12:58:14;16.87;;;13.00;;
18280;SDS011;9266;51.132;17.062;2023-11-22T13:00:41;14.43;;;11.57;;
18280;SDS011;9266;51.132;17.062;2023-11-22T13:03:11;19.87;;;12.87;;
18280;SDS011;9266;51.132;17.062;2023-11-22T13:05:40;17.00;;;13.20;;
18280;SDS011;9266;51.132;17.062;2023-11-22T13:08:09;18.97;;;12.97;;
18280;SDS011;9266;51.132;17.062;2023-11-22T13:10:38;17.33;;;13.33;;
18280;SDS011;9266;51.132;17.062;2023-11-22T13:13:05;20.40;;;13.30;;
18280;SDS011;9266;51.132;17.062;2023-11-22T13:15:34;17.90;;;12.67;;
18280;SDS011;9266;51.132;17.062;2023-11-22T13:18:01;19.93;;;13.40;;
18280;SDS011;9266;51.132;17.062;2023-11-22T13:20:28;16.07;;;11.93;;
18280;SDS011;9266;51.132;17.062;2023-11-22T13:22:56;14.63;;;11.83;;
18280;SDS011;9266;51.132;17.062;2023-11-22T13:25:25;14.87;;;11.93;;
18280;SDS011;9266;51.132;17.062;2023-11-22T13:27:52;19.00;;;12.20;;
18280;SDS011;9266;51.132;17.062;2023-11-22T13:30:21;15.13;;;11.43;;
18280;SDS011;9266;51.132;17.062;2023-11-22T13:32:50;21.77;;;13.07;;
18280;SDS011;9266;51.132;17.062;2023-11-22T13:35:17;15.13;;;11.60;;
18280;SDS011;9266;51.132;17.062;2023-11-22T13:37:44;17.43;;;13.37;;
18280;SDS011;9266;51.132;17.062;2023-11-22T13:40:14;14.60;;;11.53;;
18280;SDS011;9266;51.132;17.062;2023-11-22T13:42:42;16.47;;;11.67;;
18280;SDS011;9266;51.132;17.062;2023-11-22T13:45:10;18.27;;;13.07;;
18280;SDS011;9266;51.132;17.062;2023-11-22T13:47:41;18.43;;;12.93;;
18280;SDS011;9266;51.132;17.062;2023-11-22T13:50:09;16.27;;;11.87;;
18280;SDS011;9266;51.132;17.062;2023-11-22T13:52:38;17.83;;;13.30;;
18280;SDS011;9266;51.132;17.062;2023-11-22T13:55:05;20.57;;;13.57;;
18280;SDS011;9266;51.132;17.062;2023-11-22T13:57:37;27.00;;;15.63;;
18280;SDS011;9266;51.132;17.062;2023-11-22T14:00:04;38.97;;;23.27;;
18280;SDS011;9266;51.132;17.062;2023-11-22T14:02:35;18.20;;;12.80;;
18280;SDS011;9266;51.132;17.062;2023-11-22T14:05:02;20.37;;;13.40;;
18280;SDS011;9266;51.132;17.062;2023-11-22T14:07:32;18.13;;;13.07;;
18280;SDS011;9266;51.132;17.062;2023-11-22T14:10:00;18.37;;;13.30;;
18280;SDS011;9266;51.132;17.062;2023-11-22T14:12:28;21.00;;;14.70;;
18280;SDS011;9266;51.132;17.062;2023-11-22T14:14:57;19.10;;;12.83;;
18280;SDS011;9266;51.132;17.062;2023-11-22T14:17:24;21.70;;;14.30;;
18280;SDS011;9266;51.132;17.062;2023-11-22T14:19:51;22.13;;;15.43;;
18280;SDS011;9266;51.132;17.062;2023-11-22T14:22:19;19.07;;;14.17;;
18280;SDS011;9266;51.132;17.062;2023-11-22T14:24:47;18.23;;;13.90;;
18280;SDS011;9266;51.132;17.062;2023-11-22T14:27:14;20.13;;;14.57;;